Time;durP1;ratioP1;P1;durP2;ratioP2;P2;SDS_P1;SDS_P2;PMS_P1;PMS_P2;Temp;Humidity;BMP_temperature;BMP_pressure;BME280_temperature;BME280_humidity;BME280_pressure;Samples;Min_cycle;Max_cycle;Signal;HPM_P1;HPM_P2
2021/06/20 00:01:01;;;;;;;23.57;21.40;;;19.70;99.40;;;;;;5152547;27;20453;-79
2021/06/20 00:03:29;;;;;;;21.40;19.40;;;19.70;99.50;;;;;;5151749;27;20543;-78
2021/06/20 00:06:00;;;;;;;23.30;21.20;;;19.70;99.60;;;;;;5148327;27;20525;-78
2021/06/20 00:08:28;;;;;;;23.20;21.07;;;19.70;99.70;;;;;;5139271;27;20833;-78
2021/06/20 00:10:56;;;;;;;23.87;21.70;;;19.70;99.90;;;;;;5140503;27;20475;-78
2021/06/20 00:13:26;;;;;;;22.83;20.90;;;19.70;99.90;;;;;;5137635;27;20444;-78
2021/06/20 00:15:54;;;;;;;23.83;21.60;;;19.70;99.90;;;;;;5121049;28;21042;-78
2021/06/20 00:18:59;;;;;;;25.77;23.40;;;19.60;99.90;;;;;;5119439;28;20508;-77
2021/06/20 00:22:02;;;;;;;23.63;21.37;;;19.60;99.90;;;;;;5120422;27;20435;-78
2021/06/20 00:24:30;;;;;;;24.93;22.43;;;19.60;99.90;;;;;;5141506;27;20552;-78
2021/06/20 00:26:59;;;;;;;24.97;22.57;;;19.50;99.90;;;;;;5139547;27;21018;-78
2021/06/20 00:29:28;;;;;;;27.53;25.00;;;19.50;99.90;;;;;;5139790;27;20461;-78
2021/06/20 00:32:18;;;;;;;25.80;23.40;;;19.50;99.90;;;;;;5139985;27;20465;-79
2021/06/20 00:35:29;;;;;;;26.87;24.23;;;19.50;99.90;;;;;;5136599;27;20458;-78
2021/06/20 00:37:57;;;;;;;25.33;23.23;;;19.50;99.90;;;;;;5120618;28;20882;-78
2021/06/20 00:40:25;;;;;;;26.73;23.90;;;19.50;99.90;;;;;;5120794;28;20498;-78
2021/06/20 00:42:53;;;;;;;28.63;25.83;;;19.50;99.90;;;;;;5118981;28;20454;-78
2021/06/20 00:45:25;;;;;;;26.53;24.10;;;19.50;99.90;;;;;;5119318;28;20997;-79
2021/06/20 00:47:54;;;;;;;26.60;24.13;;;19.50;99.90;;;;;;5121060;28;20581;-78
2021/06/20 00:50:35;;;;;;;26.40;23.93;;;19.50;99.90;;;;;;5120573;28;20442;-78
2021/06/20 00:53:16;;;;;;;26.27;23.63;;;19.50;99.90;;;;;;5119308;28;20450;-78
2021/06/20 00:55:49;;;;;;;27.30;24.37;;;19.50;99.90;;;;;;5119264;28;20796;-78
2021/06/20 00:58:21;;;;;;;27.53;24.90;;;19.50;99.90;;;;;;5135672;27;20466;-78
2021/06/20 01:00:51;;;;;;;29.73;27.00;;;19.50;99.90;;;;;;5121441;27;20497;-78
2021/06/20 01:03:45;;;;;;;28.73;25.73;;;19.50;99.90;;;;;;5118456;28;20449;-78
2021/06/20 01:06:49;;;;;;;27.60;25.00;;;19.40;99.90;;;;;;5120233;28;20426;-78
2021/06/20 01:12:44;;;;;;;28.17;25.37;;;19.40;99.90;;;;;;5117518;28;20809;-78
2021/06/20 01:15:16;;;;;;;27.80;25.30;;;19.40;99.90;;;;;;5117799;27;20474;-79
2021/06/20 01:17:46;;;;;;;29.33;26.30;;;19.40;99.90;;;;;;5136767;27;20442;-78
2021/06/20 01:20:17;;;;;;;28.20;25.37;;;19.40;99.90;;;;;;5139549;27;20436;-78
2021/06/20 01:22:50;;;;;;;29.07;26.17;;;19.40;99.90;;;;;;5138407;27;20491;-78
2021/06/20 01:25:21;;;;;;;30.40;27.50;;;19.40;99.90;;;;;;5137950;27;20480;-78
2021/06/20 01:27:53;;;;;;;29.67;26.73;;;19.40;99.90;;;;;;5139250;27;20526;-78
2021/06/20 01:30:25;;;;;;;28.70;25.83;;;19.40;99.90;;;;;;5137938;27;20459;-79
2021/06/20 01:32:54;;;;;;;29.27;26.43;;;19.40;99.90;;;;;;5123131;27;20869;-78
2021/06/20 01:35:23;;;;;;;29.00;26.50;;;19.40;99.90;;;;;;5126172;27;21007;-78
2021/06/20 01:37:54;;;;;;;31.40;28.53;;;19.40;99.90;;;;;;5130772;27;20492;-78
2021/06/20 01:40:24;;;;;;;28.57;25.87;;;19.40;99.90;;;;;;5119497;28;20431;-78
2021/06/20 01:42:53;;;;;;;29.87;26.70;;;19.40;99.90;;;;;;5117681;28;20955;-78
2021/06/20 01:45:24;;;;;;;29.17;26.47;;;19.40;99.90;;;;;;5117900;28;20462;-78
2021/06/20 01:47:53;;;;;;;30.10;27.00;;;19.40;99.90;;;;;;5118173;28;20886;-78
2021/06/20 01:50:22;;;;;;;30.27;27.50;;;19.40;99.90;;;;;;5116494;28;21060;-78
2021/06/20 01:53:02;;;;;;;30.85;28.05;;;19.40;99.90;;;;;;5122820;27;20505;-78
2021/06/20 01:55:34;;;;;;;31.73;28.70;;;19.50;99.90;;;;;;5138007;27;20778;-78
2021/06/20 01:58:05;;;;;;;30.60;27.50;;;19.50;99.90;;;;;;5139449;27;20507;-78
2021/06/20 02:00:34;;;;;;;32.77;29.37;;;19.40;99.90;;;;;;5131886;27;20489;-78
2021/06/20 02:03:07;;;;;;;30.80;27.83;;;19.40;99.90;;;;;;5138613;27;20507;-79
2021/06/20 02:05:35;;;;;;;31.73;28.43;;;19.50;99.90;;;;;;5125126;27;20477;-78
2021/06/20 02:08:05;;;;;;;30.80;27.90;;;19.50;99.90;;;;;;5118077;28;20475;-79
2021/06/20 02:10:36;;;;;;;29.37;26.77;;;19.50;99.90;;;;;;5117464;28;20447;-79
2021/06/20 02:13:04;;;;;;;31.20;27.90;;;19.50;99.90;;;;;;5116721;28;20493;-79
2021/06/20 02:15:33;;;;;;;30.33;27.57;;;19.60;99.90;;;;;;5117427;28;20877;-79
2021/06/20 02:18:03;;;;;;;29.27;26.67;;;19.50;99.90;;;;;;5115849;28;20465;-79
2021/06/20 02:20:31;;;;;;;29.80;26.70;;;19.50;99.90;;;;;;5120027;27;20499;-79
2021/06/20 02:23:00;;;;;;;31.13;26.80;;;19.60;99.90;;;;;;5117773;28;20453;-79
2021/06/20 02:25:30;;;;;;;31.07;28.17;;;19.60;99.90;;;;;;5120406;28;20948;-79
2021/06/20 02:28:00;;;;;;;31.43;28.40;;;19.60;99.90;;;;;;5119239;28;20465;-79
2021/06/20 02:30:29;;;;;;;33.93;30.53;;;19.60;99.90;;;;;;5116462;28;20441;-79
2021/06/20 02:36:36;;;;;;;32.90;29.50;;;19.60;99.90;;;;;;5117470;28;20466;-79
2021/06/20 02:39:05;;;;;;;32.05;28.95;;;19.50;99.90;;;;;;5115443;28;20478;-79
2021/06/20 02:41:34;;;;;;;32.03;29.03;;;19.60;99.90;;;;;;5117136;28;20292;-79
2021/06/20 02:44:02;;;;;;;31.87;28.77;;;19.60;99.90;;;;;;5117486;28;20457;-79
2021/06/20 02:46:31;;;;;;;30.43;27.70;;;19.60;99.90;;;;;;5116166;28;20491;-80
2021/06/20 02:48:59;;;;;;;30.60;27.70;;;19.60;99.90;;;;;;5114830;28;20473;-81
2021/06/20 02:51:29;;;;;;;35.70;32.00;;;19.60;99.90;;;;;;5129490;27;20461;-81
2021/06/20 02:53:59;;;;;;;31.50;28.47;;;19.60;99.90;;;;;;5130027;28;20199;-81
2021/06/20 02:56:27;;;;;;;33.70;30.40;;;19.60;99.90;;;;;;5134361;28;20970;-81
2021/06/20 02:59:04;;;;;;;32.23;28.83;;;19.60;99.90;;;;;;5134503;28;20497;-81
2021/06/20 03:01:38;;;;;;;31.40;28.20;;;19.60;99.90;;;;;;5136216;28;20472;-80
2021/06/20 03:07:31;;;;;;;32.67;29.63;;;19.60;99.90;;;;;;5115785;28;20453;-81
2021/06/20 03:10:00;;;;;;;30.60;27.73;;;19.60;99.90;;;;;;5122597;28;20968;-81
2021/06/20 03:12:31;;;;;;;30.87;28.00;;;19.60;99.90;;;;;;5137220;27;20460;-81
2021/06/20 03:15:03;;;;;;;29.03;26.47;;;19.60;99.90;;;;;;5136660;28;20497;-82
2021/06/20 03:17:35;;;;;;;28.67;26.00;;;19.60;99.90;;;;;;5136318;27;20540;-81
2021/06/20 03:20:04;;;;;;;27.47;24.73;;;19.70;99.90;;;;;;5121215;28;20511;-81
2021/06/20 03:22:33;;;;;;;25.13;22.70;;;19.70;99.90;;;;;;5119273;28;20579;-82
2021/06/20 03:25:01;;;;;;;22.00;19.90;;;19.70;99.90;;;;;;5124234;27;20578;-82
2021/06/20 03:27:34;;;;;;;22.23;20.00;;;19.70;99.90;;;;;;5121204;28;20453;-81
2021/06/20 03:30:04;;;;;;;19.57;17.60;;;19.70;99.90;;;;;;5116674;28;20427;-81
2021/06/20 03:32:32;;;;;;;22.27;19.67;;;19.70;99.90;;;;;;5128321;27;20504;-81
2021/06/20 03:35:00;;;;;;;23.00;20.70;;;19.70;99.90;;;;;;5136832;28;20439;-81
2021/06/20 03:37:29;;;;;;;20.57;18.50;;;19.80;99.90;;;;;;5136099;28;20845;-81
2021/06/20 03:39:59;;;;;;;23.30;20.87;;;19.80;99.90;;;;;;5137346;27;20471;-81
2021/06/20 03:42:27;;;;;;;23.00;20.83;;;19.80;99.90;;;;;;5139183;27;20453;-81
2021/06/20 03:50:41;;;;;;;21.17;19.27;;;19.80;99.90;;;;;;5117483;28;20435;-80
2021/06/20 03:53:11;;;;;;;18.53;15.67;;;19.90;99.90;;;;;;5119777;28;20203;-80
2021/06/20 03:55:39;;;;;;;18.33;16.53;;;19.90;99.90;;;;;;5119890;28;20537;-80
2021/06/20 03:58:08;;;;;;;14.43;13.23;;;19.90;99.90;;;;;;5113773;28;20484;-80
2021/06/20 04:00:37;;;;;;;14.40;13.17;;;19.90;99.90;;;;;;5098645;28;20522;-80
2021/06/20 04:03:08;;;;;;;13.77;12.37;;;19.90;99.90;;;;;;5089484;28;20519;-80
2021/06/20 04:05:36;;;;;;;12.27;11.07;;;19.90;99.90;;;;;;5099751;28;20487;-80
2021/06/20 04:08:06;;;;;;;12.47;11.27;;;19.90;99.90;;;;;;5098639;28;20502;-80
2021/06/20 04:10:34;;;;;;;15.53;14.03;;;19.90;99.90;;;;;;5098889;28;20454;-80
2021/06/20 04:13:03;;;;;;;16.33;14.30;;;19.90;99.90;;;;;;5098431;28;20446;-80
2021/06/20 04:15:32;;;;;;;13.87;12.37;;;19.90;99.90;;;;;;5100269;28;20450;-81
2021/06/20 04:18:00;;;;;;;12.07;10.90;;;19.90;99.90;;;;;;5098350;28;20585;-80
2021/06/20 04:20:28;;;;;;;10.77;9.67;;;19.90;99.90;;;;;;5098164;28;20816;-80
2021/06/20 04:22:57;;;;;;;12.53;10.90;;;19.90;99.90;;;;;;5098657;28;20820;-80
2021/06/20 04:25:26;;;;;;;14.13;11.83;;;19.90;99.90;;;;;;5098328;28;21035;-80
2021/06/20 04:27:55;;;;;;;10.90;9.30;;;19.90;99.90;;;;;;5094152;28;20828;-80
2021/06/20 04:30:25;;;;;;;13.77;8.00;;;19.90;99.90;;;;;;5089751;28;20582;-81
2021/06/20 04:32:56;;;;;;;9.63;6.90;;;20.00;99.90;;;;;;5093027;28;20468;-80
2021/06/20 04:35:26;;;;;;;12.47;8.37;;;20.00;99.90;;;;;;5098251;28;20439;-80
2021/06/20 04:37:54;;;;;;;11.50;7.73;;;20.00;99.90;;;;;;5097729;28;20486;-80
2021/06/20 04:40:24;;;;;;;8.03;6.53;;;20.00;99.90;;;;;;5099481;28;20829;-80
2021/06/20 04:42:57;;;;;;;7.77;6.27;;;20.00;99.90;;;;;;5086356;28;20545;-81
2021/06/20 04:45:26;;;;;;;7.07;5.80;;;20.00;99.90;;;;;;5099800;28;20507;-81
2021/06/20 04:47:55;;;;;;;8.10;6.90;;;20.00;99.90;;;;;;5080199;28;20440;-80
2021/06/20 04:50:24;;;;;;;6.60;5.70;;;20.00;99.90;;;;;;5080715;28;20205;-80
2021/06/20 04:52:54;;;;;;;7.83;5.67;;;20.00;99.90;;;;;;5084619;28;20479;-80
2021/06/20 04:55:22;;;;;;;9.13;6.00;;;20.00;99.90;;;;;;5098989;28;20456;-80
2021/06/20 04:57:51;;;;;;;8.70;5.67;;;20.00;99.90;;;;;;5096980;28;20520;-80
2021/06/20 05:00:21;;;;;;;6.50;5.20;;;20.00;99.90;;;;;;5098754;28;20474;-79
2021/06/20 05:02:49;;;;;;;7.07;5.80;;;20.00;99.90;;;;;;5096831;28;20463;-79
2021/06/20 05:05:18;;;;;;;5.93;4.83;;;20.00;99.90;;;;;;5099197;28;20446;-80
2021/06/20 05:07:47;;;;;;;6.17;4.93;;;20.00;99.90;;;;;;5093404;28;20906;-79
2021/06/20 05:10:19;;;;;;;9.63;5.13;;;20.00;99.90;;;;;;5080292;28;20892;-79
2021/06/20 05:12:47;;;;;;;5.40;4.67;;;20.00;99.90;;;;;;5083295;28;20537;-80
2021/06/20 05:15:19;;;;;;;7.80;4.83;;;20.00;99.90;;;;;;5087582;28;20512;-79
2021/06/20 05:17:55;;;;;;;6.30;4.70;;;20.10;99.90;;;;;;5095969;28;20477;-80
2021/06/20 05:20:24;;;;;;;13.60;5.63;;;20.10;99.90;;;;;;5095902;28;20819;-80
2021/06/20 05:22:52;;;;;;;7.90;4.80;;;20.10;99.90;;;;;;5096522;28;20525;-80
2021/06/20 05:25:20;;;;;;;6.83;4.80;;;20.10;99.90;;;;;;5097855;28;20448;-79
2021/06/20 05:27:49;;;;;;;6.67;4.70;;;20.10;99.90;;;;;;5102092;28;20440;-79
2021/06/20 05:30:21;;;;;;;6.43;4.17;;;20.20;99.90;;;;;;5106436;28;20452;-79
2021/06/20 05:32:50;;;;;;;7.37;4.33;;;20.20;99.90;;;;;;5101822;28;20955;-79
2021/06/20 05:35:18;;;;;;;7.30;4.30;;;20.20;99.90;;;;;;5092528;28;20566;-79
2021/06/20 05:37:47;;;;;;;7.23;4.30;;;20.20;99.90;;;;;;5097694;28;20647;-80
2021/06/20 05:40:16;;;;;;;8.17;3.97;;;20.20;99.90;;;;;;5095742;28;20523;-79
2021/06/20 05:42:44;;;;;;;9.60;4.93;;;20.30;99.90;;;;;;5095566;28;20816;-79
2021/06/20 05:45:13;;;;;;;6.47;4.03;;;20.30;99.90;;;;;;5091541;28;20529;-80
2021/06/20 05:47:45;;;;;;;6.37;4.40;;;20.40;99.90;;;;;;5077898;28;20291;-79
2021/06/20 05:50:13;;;;;;;7.77;4.17;;;20.40;99.90;;;;;;5078335;28;20987;-79
2021/06/20 05:52:42;;;;;;;5.50;4.47;;;20.40;99.90;;;;;;5079217;28;20455;-79
2021/06/20 05:55:10;;;;;;;10.67;4.10;;;20.50;99.90;;;;;;5078135;28;20534;-79
2021/06/20 05:57:38;;;;;;;8.13;4.20;;;20.40;99.90;;;;;;5078089;28;20905;-79
2021/06/20 06:00:09;;;;;;;6.80;3.70;;;20.50;99.90;;;;;;5079086;28;20455;-79
2021/06/20 06:02:39;;;;;;;8.47;4.10;;;20.50;99.90;;;;;;5097334;28;20474;-79
2021/06/20 06:05:10;;;;;;;5.90;4.13;;;20.60;99.90;;;;;;5077657;28;20451;-79
2021/06/20 06:07:40;;;;;;;5.10;4.47;;;20.60;99.90;;;;;;5108131;28;20460;-79
2021/06/20 06:10:25;;;;;;;6.93;4.03;;;20.60;99.90;;;;;;5078014;28;20812;-79
2021/06/20 06:12:54;;;;;;;8.13;4.93;;;20.70;99.90;;;;;;5078146;28;20856;-79
2021/06/20 06:15:23;;;;;;;7.10;5.00;;;20.80;99.90;;;;;;5097598;28;20463;-80
2021/06/20 06:17:51;;;;;;;4.93;3.50;;;20.80;99.90;;;;;;5095038;28;20526;-80
2021/06/20 06:20:23;;;;;;;5.50;4.17;;;20.90;99.90;;;;;;5097029;28;20457;-80
2021/06/20 06:22:51;;;;;;;8.17;6.20;;;20.90;99.90;;;;;;5096816;28;20471;-80
2021/06/20 06:25:20;;;;;;;8.77;3.73;;;21.00;99.90;;;;;;5097055;28;20451;-79
2021/06/20 06:27:50;;;;;;;3.93;3.53;;;21.10;99.90;;;;;;5096535;28;20472;-80
2021/06/20 06:30:19;;;;;;;6.33;5.27;;;21.10;99.90;;;;;;5096580;28;20528;-80
2021/06/20 06:32:48;;;;;;;6.73;4.20;;;21.20;99.90;;;;;;5094944;28;20993;-80
2021/06/20 06:35:17;;;;;;;4.80;4.07;;;21.20;99.90;;;;;;5084735;28;20453;-80
2021/06/20 06:37:49;;;;;;;6.03;4.00;;;21.30;99.90;;;;;;5082238;28;20458;-80
2021/06/20 06:40:18;;;;;;;10.27;4.87;;;21.40;99.90;;;;;;5095773;28;20448;-80
2021/06/20 06:42:46;;;;;;;5.78;4.20;;;21.40;99.90;;;;;;5094764;28;20451;-79
2021/06/20 06:45:17;;;;;;;6.93;3.70;;;21.50;99.90;;;;;;5095666;28;20630;-80
2021/06/20 06:47:46;;;;;;;5.33;4.07;;;21.50;99.90;;;;;;5095519;28;20962;-79
2021/06/20 06:50:15;;;;;;;6.70;4.50;;;21.50;99.90;;;;;;5095056;28;20453;-76
2021/06/20 06:52:43;;;;;;;5.90;4.47;;;21.60;99.90;;;;;;5093345;28;20969;-76
2021/06/20 06:55:13;;;;;;;5.60;4.00;;;21.60;99.90;;;;;;5075243;28;20541;-76
2021/06/20 06:57:43;;;;;;;5.60;4.40;;;21.60;99.90;;;;;;5088733;28;20434;-79
2021/06/20 07:00:13;;;;;;;6.50;4.53;;;21.60;99.90;;;;;;5104506;28;21036;-79
2021/06/20 07:02:41;;;;;;;5.90;5.30;;;21.70;99.90;;;;;;5098747;28;20537;-79
2021/06/20 07:05:11;;;;;;;8.77;5.30;;;21.70;99.90;;;;;;5096544;28;20450;-79
2021/06/20 07:07:39;;;;;;;8.00;5.73;;;21.80;99.90;;;;;;5093691;28;20505;-76
2021/06/20 07:10:09;;;;;;;6.93;5.80;;;21.90;99.90;;;;;;5093787;28;20456;-79
2021/06/20 07:12:38;;;;;;;11.10;6.73;;;22.10;99.90;;;;;;5094155;28;20478;-78
2021/06/20 07:15:08;;;;;;;9.60;5.90;;;22.20;99.90;;;;;;5095060;28;20449;-79
2021/06/20 07:17:38;;;;;;;8.73;7.07;;;22.30;99.90;;;;;;5080739;28;20551;-79
2021/06/20 07:20:14;;;;;;;8.57;6.77;;;22.30;99.90;;;;;;5091579;28;20471;-79
2021/06/20 07:22:48;;;;;;;7.80;6.90;;;22.30;99.90;;;;;;5099594;28;20434;-79
2021/06/20 07:25:24;;;;;;;8.80;7.17;;;22.30;99.90;;;;;;5099467;28;20427;-79
2021/06/20 07:28:03;;;;;;;9.20;8.35;;;22.30;99.90;;;;;;5079385;28;20447;-78
2021/06/20 07:30:32;;;;;;;7.97;7.23;;;22.30;99.90;;;;;;5080770;28;20228;-78
2021/06/20 07:33:00;;;;;;;9.53;8.60;;;22.30;99.90;;;;;;5080979;28;20449;-78
2021/06/20 07:35:28;;;;;;;10.33;8.30;;;22.30;99.90;;;;;;5082029;28;21040;-79
2021/06/20 07:37:57;;;;;;;11.40;10.20;;;22.30;99.90;;;;;;5096250;28;20855;-78
2021/06/20 07:40:25;;;;;;;11.23;10.10;;;22.30;99.90;;;;;;5096308;28;20616;-78
2021/06/20 07:42:56;;;;;;;9.93;8.97;;;22.30;99.90;;;;;;5096621;28;20441;-78
2021/06/20 07:45:26;;;;;;;10.87;9.77;;;22.30;99.90;;;;;;5096629;28;20957;-78
2021/06/20 07:47:54;;;;;;;11.00;10.00;;;22.20;99.90;;;;;;5098582;28;20982;-78
2021/06/20 07:50:22;;;;;;;11.73;10.73;;;22.20;99.90;;;;;;5096768;28;20466;-78
2021/06/20 07:52:50;;;;;;;11.80;10.80;;;22.20;99.90;;;;;;5079784;28;20442;-78
2021/06/20 07:55:19;;;;;;;10.93;9.93;;;22.20;99.90;;;;;;5097982;28;20850;-78
2021/06/20 07:57:47;;;;;;;11.10;10.17;;;22.20;99.90;;;;;;5079897;28;20468;-79
2021/06/20 08:00:18;;;;;;;15.87;11.77;;;22.30;99.90;;;;;;5097989;28;20462;-78
2021/06/20 08:02:57;;;;;;;10.50;9.60;;;22.30;99.90;;;;;;5086430;28;20448;-78
2021/06/20 08:05:26;;;;;;;12.53;11.13;;;22.30;99.90;;;;;;5093534;28;20463;-79
2021/06/20 08:07:56;;;;;;;13.67;12.37;;;22.30;99.90;;;;;;5098218;28;20459;-79
2021/06/20 08:10:30;;;;;;;12.37;11.17;;;22.40;99.90;;;;;;5097480;28;20489;-79
2021/06/20 08:12:58;;;;;;;13.20;11.90;;;22.40;99.90;;;;;;5097231;28;20447;-78
2021/06/20 08:15:30;;;;;;;14.00;11.60;;;22.40;99.90;;;;;;5097607;28;21013;-78
2021/06/20 08:18:01;;;;;;;12.60;11.33;;;22.50;99.90;;;;;;5097352;28;20476;-79
2021/06/20 08:20:30;;;;;;;11.87;10.77;;;22.60;99.90;;;;;;5095688;28;20500;-78
2021/06/20 08:22:58;;;;;;;13.77;12.38;;;22.60;99.90;;;;;;5092312;28;20816;-78
2021/06/20 08:25:26;;;;;;;13.93;12.60;;;22.70;99.90;;;;;;5095535;28;20194;-78
2021/06/20 08:27:54;;;;;;;12.77;11.20;;;22.80;99.90;;;;;;5096966;28;20550;-78
2021/06/20 08:30:23;;;;;;;13.13;11.83;;;22.90;99.90;;;;;;5097645;28;20451;-78
2021/06/20 08:32:51;;;;;;;13.20;11.80;;;22.90;99.90;;;;;;5095935;28;20491;-78
2021/06/20 08:35:23;;;;;;;13.85;12.60;;;23.00;99.90;;;;;;5096460;28;20514;-78
2021/06/20 08:37:52;;;;;;;14.07;12.67;;;23.10;99.90;;;;;;5078232;28;20318;-78
2021/06/20 08:40:20;;;;;;;13.40;12.10;;;23.20;99.90;;;;;;5078522;28;20464;-78
2021/06/20 08:43:05;;;;;;;13.70;12.40;;;23.20;99.90;;;;;;5078406;28;20448;-78
2021/06/20 08:45:33;;;;;;;15.00;13.40;;;23.30;99.90;;;;;;5075697;28;20500;-78
2021/06/20 08:48:03;;;;;;;13.23;12.03;;;23.30;99.90;;;;;;5074269;28;20469;-78
2021/06/20 08:50:42;;;;;;;13.83;12.53;;;23.30;99.90;;;;;;5076517;28;20442;-78
2021/06/20 08:53:16;;;;;;;14.77;13.17;;;23.40;99.90;;;;;;5088523;28;21012;-78
2021/06/20 08:55:54;;;;;;;;;;;;;;;;;;;;;
2021/06/20 08:58:30;;;;;;;14.50;13.07;;;23.50;99.90;;;;;;5096090;28;20535;-78
2021/06/20 09:01:04;;;;;;;15.40;13.90;;;23.60;99.90;;;;;;5089824;28;20500;-78
2021/06/20 09:03:39;;;;;;;14.50;12.40;;;23.60;99.90;;;;;;5095963;28;20500;-78
2021/06/20 09:06:18;;;;;;;16.00;14.30;;;23.60;99.90;;;;;;5095885;28;20822;-78
2021/06/20 09:08:52;;;;;;;14.53;13.03;;;23.70;99.90;;;;;;5094535;28;20526;-77
2021/06/20 09:11:28;;;;;;;16.40;14.80;;;23.70;99.90;;;;;;5095742;28;20776;-77
2021/06/20 09:14:04;;;;;;;15.67;14.07;;;23.70;99.90;;;;;;5087234;28;20484;-78
2021/06/20 09:16:33;;;;;;;15.57;14.17;;;23.70;99.90;;;;;;5076803;28;20476;-77
2021/06/20 09:19:02;;;;;;;15.57;13.80;;;23.70;99.90;;;;;;5076747;28;20547;-77
2021/06/20 09:21:33;;;;;;;16.47;14.77;;;23.80;99.90;;;;;;5093715;28;20924;-77
2021/06/20 09:24:01;;;;;;;17.17;15.40;;;24.00;99.90;;;;;;5076661;28;20447;-77
2021/06/20 09:26:37;;;;;;;17.00;14.60;;;24.20;99.90;;;;;;5076516;28;20447;-76
2021/06/20 09:29:07;;;;;;;18.97;14.43;;;24.20;99.90;;;;;;5094563;28;20499;-77
2021/06/20 09:31:47;;;;;;;14.30;12.80;;;24.30;99.90;;;;;;5076571;28;20452;-77
2021/06/20 09:34:16;;;;;;;12.97;11.77;;;24.40;99.90;;;;;;5076382;28;20514;-77
2021/06/20 09:36:45;;;;;;;14.70;13.20;;;24.50;99.90;;;;;;5076349;28;20820;-77
2021/06/20 09:39:21;;;;;;;12.73;11.53;;;24.60;99.90;;;;;;5072323;28;20495;-77
2021/06/20 09:42:03;;;;;;;13.97;12.47;;;24.80;99.90;;;;;;5056233;28;20475;-77
2021/06/20 09:44:36;;;;;;;13.17;11.83;;;24.90;99.90;;;;;;5056069;28;20438;-77
2021/06/20 09:47:05;;;;;;;14.30;12.90;;;25.00;99.90;;;;;;5056173;28;20540;-76
2021/06/20 09:49:38;;;;;;;13.33;12.00;;;25.10;99.90;;;;;;5094447;28;20555;-77
2021/06/20 09:52:10;;;;;;;13.43;12.03;;;25.00;99.90;;;;;;5076133;28;20452;-77
2021/06/20 09:54:43;;;;;;;12.23;11.07;;;25.00;99.90;;;;;;5093971;28;20447;-77
2021/06/20 09:57:16;;;;;;;11.70;10.60;;;24.90;99.90;;;;;;5092963;28;20441;-77
2021/06/20 09:59:56;;;;;;;11.53;10.43;;;24.90;99.90;;;;;;5087946;28;20571;-77
2021/06/20 10:02:27;;;;;;;11.57;10.53;;;25.00;99.90;;;;;;5076916;28;20476;-77
2021/06/20 10:04:55;;;;;;;11.30;10.10;;;25.10;99.90;;;;;;5075949;28;20540;-76
2021/06/20 10:07:27;;;;;;;10.77;9.77;;;25.20;99.90;;;;;;5093885;28;20433;-76
2021/06/20 10:09:57;;;;;;;10.73;9.83;;;25.30;99.90;;;;;;5090450;28;20525;-77
2021/06/20 10:12:25;;;;;;;12.93;11.83;;;25.30;99.90;;;;;;5075679;28;20531;-76
2021/06/20 10:14:56;;;;;;;14.10;12.75;;;25.30;99.90;;;;;;5074881;28;20444;-77
2021/06/20 10:17:29;;;;;;;14.00;12.70;;;25.20;99.90;;;;;;5076565;28;20211;-77
2021/06/20 10:19:59;;;;;;;13.30;12.10;;;25.30;99.90;;;;;;5075813;28;20461;-77
2021/06/20 10:22:37;;;;;;;12.67;11.37;;;25.30;99.90;;;;;;5093958;28;20432;-76
2021/06/20 10:25:08;;;;;;;12.90;11.70;;;25.40;99.90;;;;;;5075893;28;20840;-76
2021/06/20 10:27:38;;;;;;;10.67;9.57;;;25.50;99.90;;;;;;5075508;28;20452;-76
2021/06/20 10:30:09;;;;;;;10.60;9.60;;;25.60;99.90;;;;;;5094118;28;20897;-76
2021/06/20 10:32:40;;;;;;;9.57;8.70;;;25.80;99.90;;;;;;5075633;28;20535;-78
2021/06/20 10:35:14;;;;;;;9.03;8.13;;;25.80;99.90;;;;;;5083664;28;21014;-76
2021/06/20 10:37:45;;;;;;;10.27;9.37;;;25.90;99.90;;;;;;5073536;28;20429;-76
2021/06/20 10:40:22;;;;;;;10.93;9.63;;;26.00;99.90;;;;;;5088455;28;20556;-76
2021/06/20 10:42:52;;;;;;;9.27;8.37;;;26.10;99.90;;;;;;5075044;28;20468;-76
2021/06/20 10:45:32;;;;;;;10.37;9.47;;;26.20;99.90;;;;;;5075399;28;20449;-76
2021/06/20 10:48:13;;;;;;;10.00;9.10;;;26.30;99.90;;;;;;5074986;28;20468;-75
2021/06/20 10:50:43;;;;;;;8.43;7.73;;;26.40;99.90;;;;;;5090311;28;21012;-76
2021/06/20 10:53:12;;;;;;;14.37;13.27;;;26.40;99.90;;;;;;5092019;28;20440;-76
2021/06/20 10:55:47;;;;;;;12.07;11.27;;;26.50;99.90;;;;;;5079693;28;20495;-76
2021/06/20 10:58:24;;;;;;;7.07;6.47;;;26.60;99.90;;;;;;5075253;28;21018;-76
2021/06/20 11:01:05;;;;;;;8.07;7.30;;;26.80;99.90;;;;;;5093044;28;20575;-76
2021/06/20 11:03:34;;;;;;;9.57;8.77;;;26.80;99.90;;;;;;5056117;28;20526;-76
2021/06/20 11:06:13;;;;;;;19.23;17.67;;;26.80;99.90;;;;;;5071561;28;20556;-75
2021/06/20 11:08:54;;;;;;;10.90;9.93;;;26.80;99.90;;;;;;5086515;28;20468;-76
2021/06/20 11:11:24;;;;;;;7.77;7.07;;;26.70;99.90;;;;;;5086601;28;20532;-76
2021/06/20 11:14:04;;;;;;;11.37;8.60;;;26.70;99.90;;;;;;5093091;28;20476;-76
2021/06/20 11:16:34;;;;;;;10.30;9.20;;;26.70;99.90;;;;;;5092807;28;20519;-76
2021/06/20 11:19:11;;;;;;;13.30;12.00;;;26.60;99.90;;;;;;5093253;28;20472;-76
2021/06/20 11:21:42;;;;;;;11.80;10.80;;;26.50;99.90;;;;;;5090747;28;20440;-76
2021/06/20 11:24:15;;;;;;;39.90;36.10;;;26.50;99.90;;;;;;5092052;28;20476;-75
2021/06/20 11:26:54;;;;;;;11.60;10.60;;;26.50;99.90;;;;;;5092990;28;20483;-76
2021/06/20 11:29:23;;;;;;;10.10;9.30;;;26.50;99.90;;;;;;5088578;28;20518;-76
2021/06/20 11:31:54;;;;;;;11.27;10.27;;;26.50;99.90;;;;;;5092825;28;20472;-76
2021/06/20 11:34:22;;;;;;;12.50;11.37;;;26.60;99.90;;;;;;5088145;28;20864;-75
2021/06/20 11:36:51;;;;;;;13.03;12.03;;;26.60;99.90;;;;;;5074767;28;20548;-75
2021/06/20 11:39:20;;;;;;;7.93;7.27;;;26.80;99.90;;;;;;5092675;28;20532;-75
2021/06/20 11:41:51;;;;;;;10.70;9.63;;;26.80;99.70;;;;;;5093357;28;20467;-76
2021/06/20 11:44:22;;;;;;;8.77;7.90;;;26.90;99.40;;;;;;5092844;28;20527;-76
2021/06/20 11:46:51;;;;;;;8.53;7.70;;;26.90;99.30;;;;;;5093189;28;20497;-76
2021/06/20 11:49:23;;;;;;;11.27;10.17;;;26.90;99.20;;;;;;5092676;28;20506;-76
2021/06/20 11:51:55;;;;;;;8.10;7.40;;;26.90;99.10;;;;;;5091399;28;20539;-76
2021/06/20 11:54:27;;;;;;;5.10;4.60;;;26.90;98.80;;;;;;5077724;28;20452;-75
2021/06/20 11:57:02;;;;;;;5.93;5.43;;;26.90;98.40;;;;;;5093303;28;20460;-75
2021/06/20 11:59:34;;;;;;;6.45;5.55;;;27.00;98.20;;;;;;5079479;28;20528;-75
2021/06/20 12:02:04;;;;;;;5.90;5.30;;;27.10;97.80;;;;;;5078619;28;20251;-75
2021/06/20 12:04:42;;;;;;;15.13;13.73;;;27.10;97.60;;;;;;5096847;28;20779;-75
2021/06/20 12:07:11;;;;;;;7.73;6.93;;;27.20;97.50;;;;;;5095061;28;20479;-75
2021/06/20 12:09:41;;;;;;;7.23;6.63;;;27.20;97.30;;;;;;5094778;28;20456;-75
2021/06/20 12:12:12;;;;;;;9.03;7.47;;;27.30;97.10;;;;;;5096165;28;20804;-75
2021/06/20 12:14:43;;;;;;;9.75;8.85;;;27.30;97.00;;;;;;5095949;28;20762;-75
2021/06/20 12:17:17;;;;;;;10.50;9.57;;;27.30;96.60;;;;;;5094841;28;20195;-75
2021/06/20 12:19:45;;;;;;;8.40;7.60;;;27.30;96.70;;;;;;5095826;28;20550;-75
2021/06/20 12:22:15;;;;;;;9.53;8.60;;;27.30;96.80;;;;;;5094579;28;20566;-75
2021/06/20 12:24:46;;;;;;;9.13;8.33;;;27.30;96.70;;;;;;5084233;28;20892;-76
2021/06/20 12:27:27;;;;;;;8.47;7.57;;;27.30;96.50;;;;;;5077859;28;20447;-76
2021/06/20 12:29:56;;;;;;;7.20;6.60;;;27.20;96.40;;;;;;5095887;28;20546;-76
2021/06/20 12:32:24;;;;;;;9.33;8.40;;;27.20;96.40;;;;;;5077646;28;20448;-76
2021/06/20 12:34:55;;;;;;;8.77;7.97;;;27.20;96.40;;;;;;5077665;28;20440;-76
2021/06/20 12:37:23;;;;;;;7.77;7.07;;;27.20;96.20;;;;;;5095939;28;20435;-76
2021/06/20 12:39:54;;;;;;;7.90;7.10;;;27.30;96.20;;;;;;5095625;28;20456;-76
2021/06/20 12:42:24;;;;;;;7.70;7.10;;;27.30;96.20;;;;;;5095574;28;20503;-76
2021/06/20 12:44:53;;;;;;;7.67;6.97;;;27.40;96.00;;;;;;5078491;28;20455;-76
2021/06/20 12:47:32;;;;;;;7.67;6.97;;;27.40;95.80;;;;;;5077297;28;20484;-76
2021/06/20 12:50:02;;;;;;;9.47;8.67;;;27.50;95.70;;;;;;5077214;28;20460;-76
2021/06/20 12:52:35;;;;;;;7.50;6.72;;;27.50;95.60;;;;;;5095370;28;20436;-76
2021/06/20 12:55:15;;;;;;;8.70;8.00;;;27.60;95.20;;;;;;5094064;28;20710;-76
2021/06/20 12:58:24;;;;;;;7.80;7.10;;;27.60;94.90;;;;;;5095177;28;20435;-76
2021/06/20 13:01:08;;;;;;;8.57;7.97;;;27.60;94.80;;;;;;5094519;28;20449;-76
2021/06/20 13:03:36;;;;;;;7.00;6.40;;;27.60;94.70;;;;;;5095349;28;20440;-76
2021/06/20 13:06:11;;;;;;;7.90;7.20;;;27.50;94.60;;;;;;5081457;28;20552;-76
2021/06/20 13:08:39;;;;;;;8.00;7.30;;;27.50;94.40;;;;;;5094045;28;20468;-76
2021/06/20 13:11:09;;;;;;;8.93;8.13;;;27.40;93.70;;;;;;5095193;28;20675;-76
2021/06/20 13:13:37;;;;;;;7.50;6.80;;;27.40;93.80;;;;;;5095176;28;20440;-76